Denison, IA (51442)

12:41 PM CDT on September 25, 2016 (GMT -0500)
Uptown Denison | | Change Station

Elev 1273 ft 42.02 °N, 95.35 °W | Updated 25 seconds ago

Mostly Cloudy
Mostly Cloudy
65.2 °F
Feels Like 65.2 °F
N
7.0
Wind Variable Wind from NW

Today
High -- | Low -- °F
--% Chance of Precip.
Yesterday
High -- | Low -- °F
Precip. -- in
Pressure 30.08 in
Visibility 10.0 miles
Clouds Mostly Cloudy 4400 ft
Dew Point 51 °F
Humidity 61%
Rainfall 0.45 in
Snow Depth Not available.
7:12 AM 7:12 PM
Waning Crescent, 26% visible
METAR KDNS 251735Z AUTO 30013G19KT 10SM BKN044 18/10 A3008 RMK AO2
Pressure 30.08 in
Visibility 10.0 miles
Clouds Mostly Cloudy 4400 ft
Dew Point 51 °F
Humidity 61%
Rainfall 0.45 in
Snow Depth Not available.
7:12 AM 7:12 PM
Waning Crescent, 26% visible
METAR KDNS 251735Z AUTO 30013G19KT 10SM BKN044 18/10 A3008 RMK AO2

10-Day Weather Forecast

Almanac

Astronomy

Sep. 25, 2016 Rise Set
Actual Time
Civil Twilight
Nautical Twilight
Astronomical Twilight
Moon
Length of Visible Light
Length of Day
Tomorrow will be .
, % of the Moon is Illuminated

Today's Extremes

State Highs State Lows

Community

WunderPhotos

Upload Photos

1,941,674 photos uploaded!

WunderBlog® & News

Nearby

Air Quality

  Air Quality AQ Index Pollutant
Not available.

Snow Depth

Station Depth Elevation

Earthquake Activity

City Distance Mag. Time & Date
Minimum magnitude displayed is 2.5.

Coastal Water Temperatures

Place Temperature

Stations

Nearby Weather Stations

Station Location Temp. Windchill Dew Point Humidity Wind Precip. Elev Updated Type
                   

Watches & Warnings

There are currently no watches in effect.